sensor_id;sensor_type;location;lat;lon;timestamp;pressure;altitude;pressure_sealevel;temperature;humidity
7754;BME280;3921;42.266;23.122;2023-06-24T00:00:10;95100.25;;;20.71;77.18
7754;BME280;3921;42.266;23.122;2023-06-24T00:02:38;95317.84;;;21.61;77.36
7754;BME280;3921;42.266;23.122;2023-06-24T00:05:09;95175.41;;;20.65;78.52
7754;BME280;3921;42.266;23.122;2023-06-24T00:07:40;95363.06;;;22.09;78.47
7754;BME280;3921;42.266;23.122;2023-06-24T00:10:11;95602.97;;;23.52;78.99
7754;BME280;3921;42.266;23.122;2023-06-24T00:12:43;95234.22;;;20.97;79.67
7754;BME280;3921;42.266;23.122;2023-06-24T00:15:16;95221.00;;;21.06;80.30
7754;BME280;3921;42.266;23.122;2023-06-24T00:17:45;95017.84;;;19.68;80.37
7754;BME280;3921;42.266;23.122;2023-06-24T00:20:12;95228.81;;;21.03;81.03
7754;BME280;3921;42.266;23.122;2023-06-24T00:22:42;95139.13;;;20.06;80.73
7754;BME280;3921;42.266;23.122;2023-06-24T00:25:14;95052.13;;;19.60;80.75
7754;BME280;3921;42.266;23.122;2023-06-24T00:27:47;95121.59;;;20.17;80.73
7754;BME280;3921;42.266;23.122;2023-06-24T00:30:16;95491.69;;;22.62;81.08
7754;BME280;3921;42.266;23.122;2023-06-24T00:32:54;94975.31;;;19.33;80.97
7754;BME280;3921;42.266;23.122;2023-06-24T00:35:30;95086.66;;;19.85;81.42
7754;BME280;3921;42.266;23.122;2023-06-24T00:38:06;95001.72;;;19.31;81.04
7754;BME280;3921;42.266;23.122;2023-06-24T00:46:04;95492.34;;;22.49;80.82
7754;BME280;3921;42.266;23.122;2023-06-24T00:48:50;95093.91;;;19.75;80.56
7754;BME280;3921;42.266;23.122;2023-06-24T00:51:21;95064.22;;;19.74;80.57
7754;BME280;3921;42.266;23.122;2023-06-24T00:56:46;95007.28;;;19.22;80.45
7754;BME280;3921;42.266;23.122;2023-06-24T00:59:22;95243.63;;;20.96;80.93
7754;BME280;3921;42.266;23.122;2023-06-24T01:02:06;95291.00;;;21.19;80.98
7754;BME280;3921;42.266;23.122;2023-06-24T01:04:39;94994.75;;;19.17;80.31
7754;BME280;3921;42.266;23.122;2023-06-24T01:07:13;95020.63;;;19.27;80.11
7754;BME280;3921;42.266;23.122;2023-06-24T01:12:20;95067.09;;;19.68;80.95
7754;BME280;3921;42.266;23.122;2023-06-24T01:17:33;95239.13;;;20.84;81.59
7754;BME280;3921;42.266;23.122;2023-06-24T01:20:07;95632.19;;;23.34;81.96
7754;BME280;3921;42.266;23.122;2023-06-24T01:52:13;95095.59;;;19.57;79.30
7754;BME280;3921;42.266;23.122;2023-06-24T01:54:41;95504.91;;;22.21;79.37
7754;BME280;3921;42.266;23.122;2023-06-24T01:57:10;95131.09;;;19.62;79.18
7754;BME280;3921;42.266;23.122;2023-06-24T01:59:41;95121.38;;;19.32;79.34
7754;BME280;3921;42.266;23.122;2023-06-24T02:02:10;95075.25;;;19.39;78.94
7754;BME280;3921;42.266;23.122;2023-06-24T02:04:40;95557.34;;;22.30;79.54
7754;BME280;3921;42.266;23.122;2023-06-24T02:07:13;95739.66;;;23.05;79.96
7754;BME280;3921;42.266;23.122;2023-06-24T02:09:46;95669.41;;;22.92;80.01
7754;BME280;3921;42.266;23.122;2023-06-24T02:12:13;95135.81;;;19.32;80.03
7754;BME280;3921;42.266;23.122;2023-06-24T02:14:41;95438.53;;;21.33;79.99
7754;BME280;3921;42.266;23.122;2023-06-24T02:17:15;95707.47;;;23.00;80.15
7754;BME280;3921;42.266;23.122;2023-06-24T02:20:01;95610.97;;;22.15;80.35
7754;BME280;3921;42.266;23.122;2023-06-24T02:22:46;95090.91;;;19.12;79.79
7754;BME280;3921;42.266;23.122;2023-06-24T02:25:17;95579.25;;;22.00;79.83
7754;BME280;3921;42.266;23.122;2023-06-24T02:28:02;95057.97;;;18.71;79.86
7754;BME280;3921;42.266;23.122;2023-06-24T02:30:44;95253.47;;;19.79;80.33
7754;BME280;3921;42.266;23.122;2023-06-24T02:33:22;95383.81;;;20.49;80.23
7754;BME280;3921;42.266;23.122;2023-06-24T02:35:50;95171.84;;;19.24;79.93
7754;BME280;3921;42.266;23.122;2023-06-24T02:38:19;95750.03;;;22.85;80.22
7754;BME280;3921;42.266;23.122;2023-06-24T02:40:47;95173.38;;;19.28;80.03
7754;BME280;3921;42.266;23.122;2023-06-24T02:43:16;95133.16;;;18.97;80.06
7754;BME280;3921;42.266;23.122;2023-06-24T02:45:43;95163.47;;;19.22;80.41
7754;BME280;3921;42.266;23.122;2023-06-24T02:48:13;95581.50;;;21.89;80.57
7754;BME280;3921;42.266;23.122;2023-06-24T02:50:44;95375.56;;;20.42;80.97
7754;BME280;3921;42.266;23.122;2023-06-24T02:53:12;95561.72;;;21.76;81.00
7754;BME280;3921;42.266;23.122;2023-06-24T02:55:44;95762.69;;;22.71;80.86
7754;BME280;3921;42.266;23.122;2023-06-24T02:58:13;95476.66;;;21.01;81.07
7754;BME280;3921;42.266;23.122;2023-06-24T03:00:41;95505.63;;;21.19;81.40
7754;BME280;3921;42.266;23.122;2023-06-24T03:03:08;95182.38;;;19.17;81.25
7754;BME280;3921;42.266;23.122;2023-06-24T03:05:36;95482.00;;;21.14;81.27
7754;BME280;3921;42.266;23.122;2023-06-24T03:08:04;95144.84;;;19.01;81.29
7754;BME280;3921;42.266;23.122;2023-06-24T03:10:36;95564.28;;;21.76;81.01
7754;BME280;3921;42.266;23.122;2023-06-24T03:13:07;95216.25;;;19.37;80.49
7754;BME280;3921;42.266;23.122;2023-06-24T03:15:35;95083.22;;;18.55;80.04
7754;BME280;3921;42.266;23.122;2023-06-24T03:18:03;95767.81;;;22.71;80.59
7754;BME280;3921;42.266;23.122;2023-06-24T03:20:34;95143.78;;;18.87;80.57
7754;BME280;3921;42.266;23.122;2023-06-24T03:23:12;95684.06;;;22.38;80.79
7754;BME280;3921;42.266;23.122;2023-06-24T03:25:50;95091.31;;;18.64;80.37
7754;BME280;3921;42.266;23.122;2023-06-24T03:38:50;95127.69;;;18.67;80.60
7754;BME280;3921;42.266;23.122;2023-06-24T04:01:52;95494.34;;;21.06;81.01
7754;BME280;3921;42.266;23.122;2023-06-24T04:04:26;95156.94;;;18.77;80.91
7754;BME280;3921;42.266;23.122;2023-06-24T05:56:43;95094.63;;;19.05;88.30
7754;BME280;3921;42.266;23.122;2023-06-24T05:59:14;95332.91;;;20.63;87.50
7754;BME280;3921;42.266;23.122;2023-06-24T06:01:45;95179.16;;;19.51;86.72
7754;BME280;3921;42.266;23.122;2023-06-24T06:04:22;95150.84;;;19.57;86.42
7754;BME280;3921;42.266;23.122;2023-06-24T06:07:04;95597.47;;;22.46;87.16
7754;BME280;3921;42.266;23.122;2023-06-24T06:09:32;95597.16;;;22.52;86.78
7754;BME280;3921;42.266;23.122;2023-06-24T06:12:06;95680.69;;;23.21;86.65
7754;BME280;3921;42.266;23.122;2023-06-24T06:14:36;95433.59;;;21.47;86.21
7754;BME280;3921;42.266;23.122;2023-06-24T06:17:04;95145.03;;;19.72;85.34
7754;BME280;3921;42.266;23.122;2023-06-24T06:19:32;95095.06;;;19.51;85.07
7754;BME280;3921;42.266;23.122;2023-06-24T06:22:06;95707.03;;;23.56;85.42
7754;BME280;3921;42.266;23.122;2023-06-24T06:24:34;95092.28;;;19.55;85.61
7754;BME280;3921;42.266;23.122;2023-06-24T06:27:17;95167.97;;;20.26;85.61
7754;BME280;3921;42.266;23.122;2023-06-24T06:29:49;95144.31;;;20.05;86.07
7754;BME280;3921;42.266;23.122;2023-06-24T06:40:29;95032.53;;;19.44;88.28
7754;BME280;3921;42.266;23.122;2023-06-24T06:43:27;95078.03;;;19.87;88.85
7754;BME280;3921;42.266;23.122;2023-06-24T06:45:58;95444.72;;;22.30;88.64
7754;BME280;3921;42.266;23.122;2023-06-24T06:48:25;95107.78;;;20.22;87.72
7754;BME280;3921;42.266;23.122;2023-06-24T06:50:53;95406.66;;;21.74;88.23
7754;BME280;3921;42.266;23.122;2023-06-24T06:53:22;95416.38;;;21.84;88.41
7754;BME280;3921;42.266;23.122;2023-06-24T06:56:29;95131.66;;;20.21;87.32
7754;BME280;3921;42.266;23.122;2023-06-24T06:59:11;95095.50;;;19.95;87.13
7754;BME280;3921;42.266;23.122;2023-06-24T07:18:39;95246.50;;;21.23;85.31
7754;BME280;3921;42.266;23.122;2023-06-24T07:21:24;95169.28;;;20.85;84.74
7754;BME280;3921;42.266;23.122;2023-06-24T07:26:48;95592.78;;;23.67;85.04
7754;BME280;3921;42.266;23.122;2023-06-24T07:29:31;95189.75;;;21.01;84.15
7754;BME280;3921;42.266;23.122;2023-06-24T07:34:48;95180.72;;;21.11;83.58
7754;BME280;3921;42.266;23.122;2023-06-24T07:37:29;95200.03;;;21.16;83.76
7754;BME280;3921;42.266;23.122;2023-06-24T07:40:01;95175.72;;;21.25;83.22
7754;BME280;3921;42.266;23.122;2023-06-24T07:42:51;95578.63;;;23.59;83.02
7754;BME280;3921;42.266;23.122;2023-06-24T07:45:27;95176.44;;;21.27;83.13
7754;BME280;3921;42.266;23.122;2023-06-24T07:48:09;95311.50;;;22.17;81.59
7754;BME280;3921;42.266;23.122;2023-06-24T10:17:43;95104.72;;;23.65;81.69
7754;BME280;3921;42.266;23.122;2023-06-24T10:20:27;95389.59;;;25.66;82.44
7754;BME280;3921;42.266;23.122;2023-06-24T10:23:22;95160.19;;;24.47;84.39
7754;BME280;3921;42.266;23.122;2023-06-24T10:29:11;95348.63;;;25.89;80.77
7754;BME280;3921;42.266;23.122;2023-06-24T10:32:05;95018.91;;;23.83;82.17
7754;BME280;3921;42.266;23.122;2023-06-24T10:34:43;94974.88;;;23.76;84.13
7754;BME280;3921;42.266;23.122;2023-06-24T10:37:21;95124.03;;;24.75;84.77
7754;BME280;3921;42.266;23.122;2023-06-24T10:39:54;95576.41;;;27.47;81.05
7754;BME280;3921;42.266;23.122;2023-06-24T10:42:38;95558.00;;;27.52;82.71
7754;BME280;3921;42.266;23.122;2023-06-24T10:45:22;95077.47;;;24.54;83.52
7754;BME280;3921;42.266;23.122;2023-06-24T10:47:52;95276.88;;;25.84;82.95
7754;BME280;3921;42.266;23.122;2023-06-24T10:50:35;95075.53;;;24.71;82.29
7754;BME280;3921;42.266;23.122;2023-06-24T10:55:53;95139.44;;;25.13;82.20
7754;BME280;3921;42.266;23.122;2023-06-24T10:56:19;95428.25;;;27.15;79.87
7754;BME280;3921;42.266;23.122;2023-06-24T10:58:57;95074.94;;;25.16;79.91
7754;BME280;3921;42.266;23.122;2023-06-24T11:01:24;94980.81;;;24.66;79.52
7754;BME280;3921;42.266;23.122;2023-06-24T11:03:53;95347.44;;;27.03;79.54
7754;BME280;3921;42.266;23.122;2023-06-24T11:06:21;95395.22;;;27.20;82.70
7754;BME280;3921;42.266;23.122;2023-06-24T11:08:48;95277.38;;;26.74;87.08
7754;BME280;3921;42.266;23.122;2023-06-24T11:11:19;95164.84;;;26.15;85.04
7754;BME280;3921;42.266;23.122;2023-06-24T11:13:48;95201.59;;;26.41;83.01
7754;BME280;3921;42.266;23.122;2023-06-24T11:16:20;95267.63;;;27.02;89.58
7754;BME280;3921;42.266;23.122;2023-06-24T11:18:47;95030.44;;;25.40;89.77
7754;BME280;3921;42.266;23.122;2023-06-24T11:21:14;95370.34;;;27.65;90.87
7754;BME280;3921;42.266;23.122;2023-06-24T11:23:43;95420.09;;;27.67;90.40
7754;BME280;3921;42.266;23.122;2023-06-24T11:26:30;95156.28;;;26.15;87.22
7754;BME280;3921;42.266;23.122;2023-06-24T11:29:36;95334.63;;;27.25;84.20
7754;BME280;3921;42.266;23.122;2023-06-24T11:32:51;94937.25;;;24.88;83.69
7754;BME280;3921;42.266;23.122;2023-06-24T11:35:28;95004.00;;;25.38;86.36
7754;BME280;3921;42.266;23.122;2023-06-24T11:38:00;95030.53;;;25.14;86.29
7754;BME280;3921;42.266;23.122;2023-06-24T11:40:35;94991.63;;;24.95;86.58
7754;BME280;3921;42.266;23.122;2023-06-24T11:43:12;95065.53;;;25.41;81.84
7754;BME280;3921;42.266;23.122;2023-06-24T11:45:42;95285.25;;;26.84;81.98
7754;BME280;3921;42.266;23.122;2023-06-24T11:48:09;95149.19;;;25.94;81.10
7754;BME280;3921;42.266;23.122;2023-06-24T11:50:44;94989.41;;;24.78;83.36
7754;BME280;3921;42.266;23.122;2023-06-24T11:53:11;94976.19;;;24.58;85.92
7754;BME280;3921;42.266;23.122;2023-06-24T11:55:40;95195.13;;;25.88;82.52
7754;BME280;3921;42.266;23.122;2023-06-24T11:58:07;95257.75;;;26.36;81.62
7754;BME280;3921;42.266;23.122;2023-06-24T12:00:36;95102.16;;;25.32;87.08
7754;BME280;3921;42.266;23.122;2023-06-24T12:03:05;95388.19;;;26.98;90.05
7754;BME280;3921;42.266;23.122;2023-06-24T12:05:34;94919.34;;;24.01;93.38
7754;BME280;3921;42.266;23.122;2023-06-24T12:08:02;95010.41;;;24.46;95.07
7754;BME280;3921;42.266;23.122;2023-06-24T12:10:30;94904.16;;;23.85;95.89
7754;BME280;3921;42.266;23.122;2023-06-24T12:13:00;95282.63;;;26.01;91.84
7754;BME280;3921;42.266;23.122;2023-06-24T12:15:28;95258.47;;;25.78;94.83
7754;BME280;3921;42.266;23.122;2023-06-24T12:17:55;94988.22;;;23.69;95.37
7754;BME280;3921;42.266;23.122;2023-06-24T12:20:23;95492.88;;;26.64;96.19
7754;BME280;3921;42.266;23.122;2023-06-24T12:22:50;95134.44;;;24.21;94.90
7754;BME280;3921;42.266;23.122;2023-06-24T12:25:18;95297.75;;;25.03;96.60
7754;BME280;3921;42.266;23.122;2023-06-24T12:27:45;95456.13;;;25.98;89.46
7754;BME280;3921;42.266;23.122;2023-06-24T12:30:14;95007.94;;;23.27;88.39
7754;BME280;3921;42.266;23.122;2023-06-24T12:32:42;95047.16;;;23.15;82.25
7754;BME280;3921;42.266;23.122;2023-06-24T12:35:10;95109.25;;;23.47;80.19
7754;BME280;3921;42.266;23.122;2023-06-24T12:37:37;95375.84;;;25.15;81.52
7754;BME280;3921;42.266;23.122;2023-06-24T12:40:04;95370.13;;;24.97;86.18
7754;BME280;3921;42.266;23.122;2023-06-24T12:42:32;95102.44;;;23.19;87.75
7754;BME280;3921;42.266;23.122;2023-06-24T12:44:59;95075.47;;;22.99;91.58
7754;BME280;3921;42.266;23.122;2023-06-24T12:47:28;95563.13;;;26.15;94.51
7754;BME280;3921;42.266;23.122;2023-06-24T12:49:55;95222.53;;;23.95;98.11
7754;BME280;3921;42.266;23.122;2023-06-24T12:52:22;95369.53;;;24.67;100.00
7754;BME280;3921;42.266;23.122;2023-06-24T12:54:49;95065.13;;;22.86;100.00
7754;BME280;3921;42.266;23.122;2023-06-24T12:57:16;94921.25;;;21.95;100.00
7754;BME280;3921;42.266;23.122;2023-06-24T12:59:51;94987.91;;;22.37;100.00
7754;BME280;3921;42.266;23.122;2023-06-24T13:02:18;95380.19;;;25.00;100.00
7754;BME280;3921;42.266;23.122;2023-06-24T13:04:47;95545.91;;;25.90;99.84
7754;BME280;3921;42.266;23.122;2023-06-24T13:07:14;95220.75;;;23.82;100.00
7754;BME280;3921;42.266;23.122;2023-06-24T13:09:41;95548.56;;;25.76;100.00
7754;BME280;3921;42.266;23.122;2023-06-24T13:12:08;95486.88;;;25.34;100.00
7754;BME280;3921;42.266;23.122;2023-06-24T13:14:35;95023.09;;;22.33;100.00
7754;BME280;3921;42.266;23.122;2023-06-24T13:17:02;95474.06;;;24.93;100.00
7754;BME280;3921;42.266;23.122;2023-06-24T13:19:29;95348.28;;;24.09;100.00
7754;BME280;3921;42.266;23.122;2023-06-24T13:21:59;95383.72;;;24.45;100.00
7754;BME280;3921;42.266;23.122;2023-06-24T13:24:26;95351.25;;;24.30;100.00
7754;BME280;3921;42.266;23.122;2023-06-24T13:26:53;95564.03;;;25.61;100.00
7754;BME280;3921;42.266;23.122;2023-06-24T13:29:20;95556.31;;;25.61;100.00
7754;BME280;3921;42.266;23.122;2023-06-24T13:31:47;95380.22;;;24.46;100.00
7754;BME280;3921;42.266;23.122;2023-06-24T13:34:14;95360.78;;;24.28;100.00
7754;BME280;3921;42.266;23.122;2023-06-24T13:36:40;95301.66;;;23.88;100.00
7754;BME280;3921;42.266;23.122;2023-06-24T13:39:09;95429.91;;;24.59;100.00
7754;BME280;3921;42.266;23.122;2023-06-24T13:41:38;95600.03;;;25.34;100.00
7754;BME280;3921;42.266;23.122;2023-06-24T13:44:05;95606.16;;;25.46;100.00
7754;BME280;3921;42.266;23.122;2023-06-24T13:46:32;95244.03;;;23.22;100.00
7754;BME280;3921;42.266;23.122;2023-06-24T13:48:59;95599.75;;;25.39;100.00
7754;BME280;3921;42.266;23.122;2023-06-24T13:51:26;95024.72;;;21.76;100.00
7754;BME280;3921;42.266;23.122;2023-06-24T13:53:54;95562.06;;;25.11;100.00
7754;BME280;3921;42.266;23.122;2023-06-24T13:56:23;95078.53;;;21.88;100.00
7754;BME280;3921;42.266;23.122;2023-06-24T13:58:51;95505.59;;;24.68;100.00
7754;BME280;3921;42.266;23.122;2023-06-24T14:01:19;95229.38;;;23.10;100.00
7754;BME280;3921;42.266;23.122;2023-06-24T14:03:46;95622.56;;;25.31;100.00
7754;BME280;3921;42.266;23.122;2023-06-24T14:06:15;95606.38;;;25.29;100.00
7754;BME280;3921;42.266;23.122;2023-06-24T14:08:43;95585.75;;;25.16;100.00
7754;BME280;3921;42.266;23.122;2023-06-24T14:11:10;95499.28;;;24.45;100.00
7754;BME280;3921;42.266;23.122;2023-06-24T14:13:40;95309.78;;;23.23;100.00
7754;BME280;3921;42.266;23.122;2023-06-24T14:16:08;95263.16;;;23.02;100.00
7754;BME280;3921;42.266;23.122;2023-06-24T14:18:35;95146.25;;;22.13;100.00
7754;BME280;3921;42.266;23.122;2023-06-24T14:21:04;95564.09;;;24.77;100.00
7754;BME280;3921;42.266;23.122;2023-06-24T14:23:32;95308.19;;;23.07;100.00
7754;BME280;3921;42.266;23.122;2023-06-24T14:25:59;95380.84;;;23.50;100.00
7754;BME280;3921;42.266;23.122;2023-06-24T14:28:26;95279.16;;;22.92;100.00
7754;BME280;3921;42.266;23.122;2023-06-24T14:30:55;95447.91;;;23.88;100.00
7754;BME280;3921;42.266;23.122;2023-06-24T14:33:21;95526.88;;;24.27;100.00
7754;BME280;3921;42.266;23.122;2023-06-24T14:35:48;95193.28;;;21.94;100.00
7754;BME280;3921;42.266;23.122;2023-06-24T14:38:16;95366.44;;;22.89;100.00
7754;BME280;3921;42.266;23.122;2023-06-24T14:40:43;95610.09;;;24.53;100.00
7754;BME280;3921;42.266;23.122;2023-06-24T14:43:10;95713.91;;;24.94;100.00
7754;BME280;3921;42.266;23.122;2023-06-24T14:45:37;95564.25;;;24.31;100.00
7754;BME280;3921;42.266;23.122;2023-06-24T14:48:05;95442.00;;;23.72;100.00
7754;BME280;3921;42.266;23.122;2023-06-24T14:50:34;95448.22;;;23.68;100.00
7754;BME280;3921;42.266;23.122;2023-06-24T14:53:01;95428.78;;;23.03;100.00
7754;BME280;3921;42.266;23.122;2023-06-24T14:55:28;95530.38;;;23.82;100.00
7754;BME280;3921;42.266;23.122;2023-06-24T14:57:56;95707.47;;;24.72;100.00
7754;BME280;3921;42.266;23.122;2023-06-24T15:00:22;95408.16;;;22.75;100.00
7754;BME280;3921;42.266;23.122;2023-06-24T15:02:49;95495.97;;;23.40;100.00
7754;BME280;3921;42.266;23.122;2023-06-24T15:05:18;95515.25;;;23.16;100.00
7754;BME280;3921;42.266;23.122;2023-06-24T15:07:45;95675.00;;;24.41;100.00
7754;BME280;3921;42.266;23.122;2023-06-24T15:10:12;95298.41;;;22.06;100.00
7754;BME280;3921;42.266;23.122;2023-06-24T15:12:39;95492.34;;;22.81;100.00
7754;BME280;3921;42.266;23.122;2023-06-24T15:15:06;95517.09;;;23.14;100.00
7754;BME280;3921;42.266;23.122;2023-06-24T15:17:33;95463.84;;;22.71;100.00
7754;BME280;3921;42.266;23.122;2023-06-24T15:20:02;95495.19;;;22.92;100.00
7754;BME280;3921;42.266;23.122;2023-06-24T15:22:30;95469.03;;;22.70;100.00
7754;BME280;3921;42.266;23.122;2023-06-24T15:24:57;95643.75;;;23.73;100.00
7754;BME280;3921;42.266;23.122;2023-06-24T15:27:24;95079.66;;;20.06;98.35
7754;BME280;3921;42.266;23.122;2023-06-24T15:29:51;95341.31;;;21.69;100.00
7754;BME280;3921;42.266;23.122;2023-06-24T15:32:18;95607.19;;;23.22;100.00
7754;BME280;3921;42.266;23.122;2023-06-24T15:34:45;95685.78;;;23.54;99.49
7754;BME280;3921;42.266;23.122;2023-06-24T15:37:12;95767.50;;;23.78;100.00
7754;BME280;3921;42.266;23.122;2023-06-24T15:39:41;95335.34;;;21.35;98.71
7754;BME280;3921;42.266;23.122;2023-06-24T15:42:08;95222.59;;;20.39;97.83
7754;BME280;3921;42.266;23.122;2023-06-24T15:44:35;95614.13;;;22.88;100.00
7754;BME280;3921;42.266;23.122;2023-06-24T15:47:03;95726.44;;;23.78;100.00
7754;BME280;3921;42.266;23.122;2023-06-24T15:49:30;95713.22;;;23.70;100.00
7754;BME280;3921;42.266;23.122;2023-06-24T15:51:57;95661.09;;;23.04;100.00
7754;BME280;3921;42.266;23.122;2023-06-24T15:54:24;95824.03;;;23.76;100.00
7754;BME280;3921;42.266;23.122;2023-06-24T15:56:53;95537.81;;;22.11;100.00
7754;BME280;3921;42.266;23.122;2023-06-24T15:59:19;95655.78;;;22.92;100.00
7754;BME280;3921;42.266;23.122;2023-06-24T16:01:46;95792.66;;;23.71;100.00
7754;BME280;3921;42.266;23.122;2023-06-24T16:04:13;95288.69;;;20.62;100.00
7754;BME280;3921;42.266;23.122;2023-06-24T16:06:41;95365.84;;;21.04;100.00
7754;BME280;3921;42.266;23.122;2023-06-24T16:09:07;95645.00;;;22.85;100.00
7754;BME280;3921;42.266;23.122;2023-06-24T16:11:34;95677.88;;;22.94;100.00
7754;BME280;3921;42.266;23.122;2023-06-24T16:14:03;95380.94;;;21.08;100.00
7754;BME280;3921;42.266;23.122;2023-06-24T16:16:30;95727.38;;;23.44;100.00
